Portada
METAR-TAF:

METAR-TAF

Aeroports :

Jendouba, Tunísia

latitud: 36-29N, longitud: 008-48E, altitud: 143 m

Observació

L'informe es va fer fa 17 minuts, a les 11:00 UTC
Vent 4 kt del Nord, variant entre Oest i Nord-Est
Temperatura 29°C
Humitat 27%
Pressió 1011 hPa
Visibilitat 10 km o més
Escasses núvols a una alçada de 2000 ft

METAR: DTTN 031100Z 35004KT 260V050 9999 FEW020 29/08 Q1011

Hora: 12:17 (11:17 UTC)


TAF: manca

Observacions i pronòstics meteorològics de més de 4000 aeroports (METAR i TAF).

Les estacions disponibles són els punts grocs i vermells al mapa.

Posi el ratolí al punt desitjat per veure el nom de l'estació.

Feu clic per veure les observacions i els pronòstics meteorològics.

Per canviar el mapa: feu clic els botons verds amb una creu de color negre per apropar; al botó verd amb un guió per allunyar la imatge; o en les fletxes verdes per a mapes adjacents.


METAR-TAF: